Time;durP1;ratioP1;P1;durP2;ratioP2;P2;SDS_P1;SDS_P2;PMS_P1;PMS_P2;Temp;Humidity;BMP_temperature;BMP_pressure;BME280_temperature;BME280_humidity;BME280_pressure;Samples;Min_cycle;Max_cycle;Signal;HPM_P1;HPM_P2
2023/08/13 00:03:17;;;;;;;23.40;18.13;;;;;;;;;;9977500;29;20056;-84
2023/08/13 00:08:18;;;;;;;23.10;16.48;;;;;;;;;;9995404;29;20054;-82
2023/08/13 00:13:19;;;;;;;24.10;16.80;;;;;;;;;;9998893;29;20125;-80
2023/08/13 00:18:20;;;;;;;23.02;16.55;;;;;;;;;;9994964;29;20446;-82
2023/08/13 00:23:21;;;;;;;24.45;17.75;;;;;;;;;;9991173;29;20053;-83
2023/08/13 00:28:22;;;;;;;22.73;16.83;;;;;;;;;;9985777;29;20058;-81
2023/08/13 00:33:23;;;;;;;18.52;16.08;;;;;;;;;;10004407;29;20048;-81
2023/08/13 00:38:24;;;;;;;24.17;18.52;;;;;;;;;;9991142;29;20081;-80
2023/08/13 00:43:25;;;;;;;22.92;16.17;;;;;;;;;;9995222;29;20054;-81
2023/08/13 00:48:26;;;;;;;26.02;18.40;;;;;;;;;;10005854;29;20077;-81
2023/08/13 00:53:28;;;;;;;26.67;20.13;;;;;;;;;;9996457;29;20046;-82
2023/08/13 00:58:29;;;;;;;27.83;19.38;;;;;;;;;;10005543;29;20129;-81
2023/08/13 01:03:30;;;;;;;31.70;21.92;;;;;;;;;;10005829;29;20710;-82
2023/08/13 01:08:46;;;;;;;22.30;18.00;;;;;;;;;;10005266;29;20046;-80
2023/08/13 01:13:52;;;;;;;29.25;20.55;;;;;;;;;;9993032;29;20115;-81
2023/08/13 01:18:53;;;;;;;33.80;22.38;;;;;;;;;;10004475;29;20052;-82
2023/08/13 01:23:55;;;;;;;35.25;23.92;;;;;;;;;;10000599;29;20102;-81
2023/08/13 01:29:04;;;;;;;26.98;19.02;;;;;;;;;;9993090;29;20153;-81
2023/08/13 01:34:06;;;;;;;29.05;21.13;;;;;;;;;;9997289;29;20057;-82
2023/08/13 01:39:07;;;;;;;25.95;20.48;;;;;;;;;;10001187;29;20053;-81
2023/08/13 01:44:08;;;;;;;25.88;20.15;;;;;;;;;;10005957;29;20511;-81
2023/08/13 01:49:09;;;;;;;26.48;20.45;;;;;;;;;;10004016;29;20049;-82
2023/08/13 01:54:10;;;;;;;24.88;19.83;;;;;;;;;;10010575;29;20106;-82
2023/08/13 01:59:11;;;;;;;26.50;20.27;;;;;;;;;;9981369;29;20046;-82
2023/08/13 02:04:12;;;;;;;28.80;20.75;;;;;;;;;;9998058;29;20065;-81
2023/08/13 02:09:19;;;;;;;23.67;19.05;;;;;;;;;;9996313;29;20042;-83
2023/08/13 02:14:20;;;;;;;25.95;20.35;;;;;;;;;;9996591;29;20544;-81
2023/08/13 02:19:21;;;;;;;30.88;22.75;;;;;;;;;;9988304;29;20054;-81
2023/08/13 02:24:21;;;;;;;29.50;22.52;;;;;;;;;;9995727;29;20054;-81
2023/08/13 02:29:23;;;;;;;35.15;27.05;;;;;;;;;;9984190;29;20399;-84
2023/08/13 02:34:24;;;;;;;26.73;21.88;;;;;;;;;;9973725;29;20124;-83
2023/08/13 02:39:25;;;;;;;35.47;26.92;;;;;;;;;;10001791;29;20038;-82
2023/08/13 02:44:26;;;;;;;37.58;28.45;;;;;;;;;;10001422;29;20149;-83
2023/08/13 02:49:27;;;;;;;44.15;35.05;;;;;;;;;;10003435;29;20049;-81
2023/08/13 02:54:28;;;;;;;44.20;34.25;;;;;;;;;;9994987;29;20522;-81
2023/08/13 02:59:29;;;;;;;43.92;31.95;;;;;;;;;;10009957;29;20042;-83
2023/08/13 03:04:30;;;;;;;40.40;31.27;;;;;;;;;;9994059;29;20057;-81
2023/08/13 03:09:31;;;;;;;32.33;24.85;;;;;;;;;;10001565;29;20057;-82
2023/08/13 03:14:32;;;;;;;32.83;25.17;;;;;;;;;;9995470;29;20389;-82
2023/08/13 03:19:33;;;;;;;30.27;24.08;;;;;;;;;;9991219;29;20046;-82
2023/08/13 03:24:34;;;;;;;26.80;21.17;;;;;;;;;;10007044;29;20056;-82
2023/08/13 03:29:35;;;;;;;27.92;21.90;;;;;;;;;;10008300;29;20042;-81
2023/08/13 03:34:36;;;;;;;29.27;22.42;;;;;;;;;;9992559;29;20471;-82
2023/08/13 03:39:37;;;;;;;26.13;20.67;;;;;;;;;;9987664;29;20057;-82
2023/08/13 03:44:40;;;;;;;28.42;21.88;;;;;;;;;;9985949;29;20122;-80
2023/08/13 03:49:41;;;;;;;28.58;22.98;;;;;;;;;;9979005;29;20092;-82
2023/08/13 03:54:42;;;;;;;45.33;22.75;;;;;;;;;;10003495;29;20081;-83
2023/08/13 03:59:43;;;;;;;24.55;20.92;;;;;;;;;;9980743;29;20046;-84
2023/08/13 04:04:44;;;;;;;24.50;18.90;;;;;;;;;;10000540;29;20601;-81
2023/08/13 04:09:45;;;;;;;25.70;19.58;;;;;;;;;;9993678;29;20045;-81
2023/08/13 04:14:46;;;;;;;23.38;18.00;;;;;;;;;;9998594;29;20030;-83
2023/08/13 04:19:47;;;;;;;21.50;17.13;;;;;;;;;;9994267;29;20053;-81
2023/08/13 04:24:51;;;;;;;22.90;16.85;;;;;;;;;;9992231;29;20275;-80
2023/08/13 04:29:52;;;;;;;21.10;15.20;;;;;;;;;;9999561;29;20040;-81
2023/08/13 04:34:53;;;;;;;19.33;13.60;;;;;;;;;;10000419;29;20042;-82
2023/08/13 04:39:57;;;;;;;18.58;13.25;;;;;;;;;;10003147;29;20065;-83
2023/08/13 04:44:58;;;;;;;19.08;13.00;;;;;;;;;;10004634;29;20047;-81
2023/08/13 04:49:59;;;;;;;16.20;12.23;;;;;;;;;;10012257;29;20046;-81
2023/08/13 04:55:00;;;;;;;15.52;12.77;;;;;;;;;;10012533;29;20045;-82
2023/08/13 05:00:03;;;;;;;16.42;12.20;;;;;;;;;;10014282;29;20042;-82
2023/08/13 05:05:04;;;;;;;15.68;12.43;;;;;;;;;;10012213;29;20046;-81
2023/08/13 05:10:05;;;;;;;16.17;11.88;;;;;;;;;;9997159;29;20092;-80
2023/08/13 05:15:07;;;;;;;16.50;11.50;;;;;;;;;;10002138;29;20050;-82
2023/08/13 05:20:08;;;;;;;15.45;10.85;;;;;;;;;;9998176;29;20046;-82
2023/08/13 05:25:09;;;;;;;14.50;12.00;;;;;;;;;;9993012;29;20060;-81
2023/08/13 05:30:10;;;;;;;14.82;11.50;;;;;;;;;;9996271;29;20100;-81
2023/08/13 05:35:11;;;;;;;16.23;11.73;;;;;;;;;;9983426;29;20042;-81
2023/08/13 05:40:12;;;;;;;15.43;11.75;;;;;;;;;;10004398;29;20475;-83
2023/08/13 05:45:13;;;;;;;16.58;11.52;;;;;;;;;;9995554;29;20038;-81
2023/08/13 05:50:14;;;;;;;16.30;12.18;;;;;;;;;;10003481;29;20041;-82
2023/08/13 05:55:15;;;;;;;15.73;10.50;;;;;;;;;;10012531;29;20034;-82
2023/08/13 06:00:17;;;;;;;16.35;10.20;;;;;;;;;;10006711;29;20091;-81
2023/08/13 06:05:18;;;;;;;14.88;9.75;;;;;;;;;;10007982;29;20053;-81
2023/08/13 06:10:19;;;;;;;13.07;9.60;;;;;;;;;;9985666;29;20054;-80
2023/08/13 06:15:20;;;;;;;13.13;9.75;;;;;;;;;;9992757;29;20061;-86
2023/08/13 06:20:21;;;;;;;12.65;9.35;;;;;;;;;;9983936;29;20587;-85
2023/08/13 06:25:22;;;;;;;15.27;9.75;;;;;;;;;;9965331;29;20054;-86
2023/08/13 06:30:24;;;;;;;10.20;8.68;;;;;;;;;;9990577;29;20042;-86
2023/08/13 06:35:25;;;;;;;11.77;9.20;;;;;;;;;;9979466;29;20057;-86
2023/08/13 06:40:26;;;;;;;8.90;7.65;;;;;;;;;;9982266;29;20571;-86
2023/08/13 06:45:29;;;;;;;10.88;7.60;;;;;;;;;;10004747;29;20133;-85
2023/08/13 06:50:30;;;;;;;9.73;7.63;;;;;;;;;;9990271;29;20046;-85
2023/08/13 06:55:31;;;;;;;7.95;6.35;;;;;;;;;;9982387;29;20054;-86
2023/08/13 07:00:33;;;;;;;15.40;11.02;;;;;;;;;;9996660;29;20558;-86
2023/08/13 07:05:35;;;;;;;11.00;7.40;;;;;;;;;;9971827;29;20038;-86
2023/08/13 07:10:36;;;;;;;8.52;4.60;;;;;;;;;;9985252;29;20045;-86
2023/08/13 07:15:37;;;;;;;5.65;4.28;;;;;;;;;;9978901;29;20071;-85
2023/08/13 07:20:39;;;;;;;4.13;3.70;;;;;;;;;;9997381;29;20062;-84
2023/08/13 07:25:40;;;;;;;4.75;3.75;;;;;;;;;;9994329;29;20057;-83
2023/08/13 07:30:41;;;;;;;5.82;4.15;;;;;;;;;;10004332;29;20030;-86
2023/08/13 07:35:42;;;;;;;5.00;4.28;;;;;;;;;;10006784;29;20064;-86
2023/08/13 07:40:43;;;;;;;3.85;3.40;;;;;;;;;;9999800;29;20038;-85
2023/08/13 07:45:44;;;;;;;10.32;4.18;;;;;;;;;;9979766;29;20058;-86
2023/08/13 07:50:45;;;;;;;5.22;3.45;;;;;;;;;;9987636;29;20030;-86
2023/08/13 07:55:49;;;;;;;4.00;3.60;;;;;;;;;;10004854;24;20073;-84
2023/08/13 08:00:50;;;;;;;4.53;4.05;;;;;;;;;;10007106;29;20041;-86
2023/08/13 08:05:52;;;;;;;7.22;4.13;;;;;;;;;;9990639;29;20260;-84
2023/08/13 08:10:53;;;;;;;6.85;3.58;;;;;;;;;;10011059;29;20034;-85
2023/08/13 08:15:55;;;;;;;6.38;3.13;;;;;;;;;;10014801;29;20049;-86
2023/08/13 08:20:56;;;;;;;4.30;3.10;;;;;;;;;;10014623;29;20079;-86
2023/08/13 08:25:57;;;;;;;3.78;3.40;;;;;;;;;;9997952;29;20133;-86
2023/08/13 08:30:58;;;;;;;5.70;3.95;;;;;;;;;;9986904;29;20090;-86
2023/08/13 08:35:59;;;;;;;4.55;3.38;;;;;;;;;;9991214;29;20046;-88
2023/08/13 08:41:00;;;;;;;4.15;3.00;;;;;;;;;;10001555;29;20460;-87
2023/08/13 08:46:01;;;;;;;3.95;3.17;;;;;;;;;;9990951;29;20567;-86
2023/08/13 08:51:02;;;;;;;4.80;3.45;;;;;;;;;;9980498;29;20052;-87
2023/08/13 08:56:04;;;;;;;6.30;3.55;;;;;;;;;;10026852;24;20802;-85
2023/08/13 09:01:05;;;;;;;4.28;3.17;;;;;;;;;;10012423;29;20060;-87
2023/08/13 09:06:06;;;;;;;3.45;3.05;;;;;;;;;;10012007;29;20081;-86
2023/08/13 09:11:09;;;;;;;4.95;3.28;;;;;;;;;;10011713;29;20038;-89
2023/08/13 09:16:10;;;;;;;3.70;3.25;;;;;;;;;;10009800;29;20291;-86
2023/08/13 09:21:11;;;;;;;4.28;3.20;;;;;;;;;;10010405;29;20491;-86
2023/08/13 09:26:13;;;;;;;4.63;3.65;;;;;;;;;;10010896;29;20114;-87
2023/08/13 09:31:14;;;;;;;3.60;3.30;;;;;;;;;;9999546;29;20084;-87
2023/08/13 09:36:15;;;;;;;4.18;3.63;;;;;;;;;;9998801;29;20572;-86
2023/08/13 09:41:17;;;;;;;8.82;4.55;;;;;;;;;;9995385;29;20042;-86
2023/08/13 09:46:20;;;;;;;7.10;3.92;;;;;;;;;;10002560;29;20114;-85
2023/08/13 09:51:25;;;;;;;4.00;3.00;;;;;;;;;;9998459;29;20125;-85
2023/08/13 09:56:27;;;;;;;5.28;3.35;;;;;;;;;;10003089;29;20064;-86
2023/08/13 10:01:29;;;;;;;7.63;3.95;;;;;;;;;;9986005;29;20129;-86
2023/08/13 10:06:30;;;;;;;5.03;3.65;;;;;;;;;;9999740;29;20543;-86
2023/08/13 10:11:31;;;;;;;5.50;3.22;;;;;;;;;;9998759;29;20041;-88
2023/08/13 10:16:33;;;;;;;5.22;3.30;;;;;;;;;;10010684;29;20483;-86
2023/08/13 10:21:37;;;;;;;4.60;3.00;;;;;;;;;;10009962;29;20040;-88
2023/08/13 10:26:41;;;;;;;3.75;3.13;;;;;;;;;;9999106;29;20054;-86
2023/08/13 10:31:49;;;;;;;7.93;2.78;;;;;;;;;;10005241;29;20498;-86
2023/08/13 10:36:54;;;;;;;3.70;3.17;;;;;;;;;;10002797;29;20046;-86
2023/08/13 10:41:56;;;;;;;4.68;3.65;;;;;;;;;;10003630;29;20099;-87
2023/08/13 10:46:58;;;;;;;7.07;3.97;;;;;;;;;;9998549;29;20061;-85
2023/08/13 10:52:02;;;;;;;4.40;3.30;;;;;;;;;;10006567;29;20042;-86
2023/08/13 10:57:03;;;;;;;4.07;3.50;;;;;;;;;;10005494;29;20038;-86
2023/08/13 11:02:19;;;;;;;5.10;3.15;;;;;;;;;;9999549;29;20044;-86
2023/08/13 11:07:21;;;;;;;11.30;3.13;;;;;;;;;;9999073;29;20157;-86
2023/08/13 11:12:22;;;;;;;4.15;3.65;;;;;;;;;;9994573;29;20057;-86
2023/08/13 11:17:23;;;;;;;3.63;3.10;;;;;;;;;;9994160;29;20049;-85
2023/08/13 11:22:27;;;;;;;3.15;2.85;;;;;;;;;;10000041;29;20045;-85
2023/08/13 11:27:30;;;;;;;3.35;2.80;;;;;;;;;;9988019;29;20066;-84
2023/08/13 11:32:31;;;;;;;5.05;3.60;;;;;;;;;;9982463;29;20038;-85
2023/08/13 11:37:32;;;;;;;5.05;3.50;;;;;;;;;;9990860;29;20052;-83
2023/08/13 11:42:34;;;;;;;3.30;2.80;;;;;;;;;;9997380;29;20402;-85
2023/08/13 11:47:35;;;;;;;3.67;3.38;;;;;;;;;;9998694;29;20055;-85
2023/08/13 11:52:36;;;;;;;3.33;2.75;;;;;;;;;;9993835;29;20049;-85
2023/08/13 11:57:38;;;;;;;7.28;3.50;;;;;;;;;;9997797;29;20517;-83
2023/08/13 12:02:39;;;;;;;4.38;3.33;;;;;;;;;;9990398;29;20038;-84
2023/08/13 12:07:41;;;;;;;5.50;3.40;;;;;;;;;;9988609;29;20678;-85
2023/08/13 12:12:42;;;;;;;4.53;3.05;;;;;;;;;;9996108;29;20049;-85
2023/08/13 12:17:43;;;;;;;3.70;3.00;;;;;;;;;;9984482;29;20054;-85
2023/08/13 12:22:44;;;;;;;4.82;2.90;;;;;;;;;;9985032;29;20046;-85
2023/08/13 12:27:47;;;;;;;3.22;2.80;;;;;;;;;;9986980;29;20046;-85
2023/08/13 12:32:47;;;;;;;4.70;3.05;;;;;;;;;;9979884;29;20158;-84
2023/08/13 12:37:49;;;;;;;3.58;3.20;;;;;;;;;;9984991;29;20044;-84
2023/08/13 12:42:50;;;;;;;3.85;3.22;;;;;;;;;;9996157;29;20060;-86
2023/08/13 12:47:51;;;;;;;3.65;2.83;;;;;;;;;;9987372;29;20053;-88
2023/08/13 12:52:52;;;;;;;3.72;3.00;;;;;;;;;;9986649;29;20054;-86
2023/08/13 12:57:53;;;;;;;5.05;3.25;;;;;;;;;;9989029;29;20049;-87
2023/08/13 13:02:54;;;;;;;4.93;3.45;;;;;;;;;;10005159;29;20134;-87
2023/08/13 13:07:55;;;;;;;2.83;2.63;;;;;;;;;;9989557;29;20410;-85
2023/08/13 13:12:56;;;;;;;4.03;3.00;;;;;;;;;;10000903;29;20057;-87
2023/08/13 13:17:57;;;;;;;3.10;2.80;;;;;;;;;;9997904;29;20038;-85
2023/08/13 13:22:58;;;;;;;8.38;3.10;;;;;;;;;;9997267;29;20050;-83
2023/08/13 13:28:00;;;;;;;3.10;2.53;;;;;;;;;;9991693;29;20046;-88
2023/08/13 13:33:01;;;;;;;2.85;2.58;;;;;;;;;;9991773;29;20054;-83
2023/08/13 13:38:02;;;;;;;2.85;2.55;;;;;;;;;;10012614;29;20057;-86
2023/08/13 13:43:04;;;;;;;4.65;2.70;;;;;;;;;;9995187;29;20118;-85
2023/08/13 13:48:05;;;;;;;4.45;2.92;;;;;;;;;;10008330;29;20046;-84
2023/08/13 13:53:06;;;;;;;4.25;2.75;;;;;;;;;;10006667;29;20062;-84
2023/08/13 13:58:08;;;;;;;3.50;2.90;;;;;;;;;;9999951;29;20042;-84
2023/08/13 14:03:09;;;;;;;4.32;3.08;;;;;;;;;;10001745;29;20095;-84
2023/08/13 14:08:10;;;;;;;4.80;3.05;;;;;;;;;;9990335;29;20673;-85
2023/08/13 14:13:11;;;;;;;3.30;2.92;;;;;;;;;;9989974;29;20057;-85
2023/08/13 14:18:12;;;;;;;5.05;3.22;;;;;;;;;;9999234;29;20707;-84
2023/08/13 14:23:13;;;;;;;3.03;2.72;;;;;;;;;;10000700;29;20487;-84
2023/08/13 14:28:14;;;;;;;3.50;3.20;;;;;;;;;;10010297;29;20502;-84
2023/08/13 14:33:19;;;;;;;5.15;3.05;;;;;;;;;;10005839;29;20102;-85
2023/08/13 14:38:20;;;;;;;3.65;3.00;;;;;;;;;;10008775;29;20045;-83
2023/08/13 14:43:21;;;;;;;5.18;3.08;;;;;;;;;;9991874;29;20050;-85
2023/08/13 14:48:23;;;;;;;4.18;2.97;;;;;;;;;;10001772;29;20096;-85
2023/08/13 14:53:24;;;;;;;3.35;3.05;;;;;;;;;;9999193;29;20062;-84
2023/08/13 14:58:28;;;;;;;3.97;3.58;;;;;;;;;;10009397;29;20054;-86
2023/08/13 15:03:29;;;;;;;5.43;3.80;;;;;;;;;;9996208;29;20112;-85
2023/08/13 15:08:31;;;;;;;3.50;3.08;;;;;;;;;;10012857;29;20123;-86
2023/08/13 15:13:33;;;;;;;6.60;3.38;;;;;;;;;;10006410;29;20060;-85
2023/08/13 15:18:34;;;;;;;4.20;2.95;;;;;;;;;;10004085;29;20121;-85
2023/08/13 15:23:35;;;;;;;3.90;3.05;;;;;;;;;;10004669;29;20052;-85
2023/08/13 15:28:36;;;;;;;3.42;2.83;;;;;;;;;;10005813;29;20074;-85
2023/08/13 15:33:37;;;;;;;3.45;3.15;;;;;;;;;;10001903;29;20135;-85
2023/08/13 15:38:38;;;;;;;5.78;3.25;;;;;;;;;;10008597;29;20510;-85
2023/08/13 15:43:39;;;;;;;5.40;3.22;;;;;;;;;;9998738;29;20050;-86
2023/08/13 15:48:40;;;;;;;3.28;2.95;;;;;;;;;;10006234;29;20058;-86
2023/08/13 15:53:41;;;;;;;3.28;2.88;;;;;;;;;;10006368;29;20058;-85
2023/08/13 15:58:42;;;;;;;4.60;3.10;;;;;;;;;;9999145;29;20050;-85
2023/08/13 16:03:43;;;;;;;4.80;3.42;;;;;;;;;;10000755;29;20046;-84
2023/08/13 16:08:44;;;;;;;3.70;3.40;;;;;;;;;;9994850;29;20503;-86
2023/08/13 16:13:45;;;;;;;3.60;3.30;;;;;;;;;;9994145;29;20042;-85
2023/08/13 16:18:47;;;;;;;3.95;3.60;;;;;;;;;;9987564;29;20053;-86
2023/08/13 16:23:48;;;;;;;4.88;3.55;;;;;;;;;;9990838;29;20045;-85
2023/08/13 16:28:49;;;;;;;4.25;3.60;;;;;;;;;;10001506;29;20050;-85
2023/08/13 16:33:51;;;;;;;4.05;3.75;;;;;;;;;;10002596;29;20094;-85
2023/08/13 16:38:52;;;;;;;5.97;4.30;;;;;;;;;;10005978;29;20045;-85
2023/08/13 16:43:53;;;;;;;7.10;4.80;;;;;;;;;;10008527;29;20572;-85
2023/08/13 16:48:54;;;;;;;6.82;5.63;;;;;;;;;;9998416;29;20054;-87
2023/08/13 16:53:55;;;;;;;7.03;5.60;;;;;;;;;;9999020;29;20058;-86
2023/08/13 16:58:56;;;;;;;7.15;5.18;;;;;;;;;;9991120;29;20043;-85
2023/08/13 17:03:57;;;;;;;5.80;4.97;;;;;;;;;;10001407;29;20563;-84
2023/08/13 17:08:58;;;;;;;7.75;5.03;;;;;;;;;;10004919;29;20050;-84
2023/08/13 17:13:59;;;;;;;8.38;5.38;;;;;;;;;;9999935;29;20047;-84
2023/08/13 17:19:00;;;;;;;11.23;6.50;;;;;;;;;;10006950;29;20045;-85
2023/08/13 17:24:01;;;;;;;10.57;6.05;;;;;;;;;;9999009;29;20321;-84
2023/08/13 17:29:03;;;;;;;8.05;6.25;;;;;;;;;;9991560;29;20062;-85
2023/08/13 17:34:04;;;;;;;8.88;6.10;;;;;;;;;;10006693;29;20487;-85
2023/08/13 17:39:05;;;;;;;6.93;5.55;;;;;;;;;;9979948;29;20090;-83
2023/08/13 17:44:06;;;;;;;8.05;5.50;;;;;;;;;;9996144;29;20049;-84
2023/08/13 17:49:07;;;;;;;6.82;5.60;;;;;;;;;;9994164;29;20042;-83
2023/08/13 17:54:08;;;;;;;6.82;5.25;;;;;;;;;;9977069;29;20054;-84
2023/08/13 17:59:09;;;;;;;8.35;5.85;;;;;;;;;;9973846;29;20095;-86
2023/08/13 18:04:10;;;;;;;8.73;6.13;;;;;;;;;;9988016;29;20103;-82
2023/08/13 18:09:11;;;;;;;8.75;6.60;;;;;;;;;;9992384;29;20969;-82
2023/08/13 18:14:12;;;;;;;6.88;5.93;;;;;;;;;;9996699;29;20594;-83
2023/08/13 18:19:13;;;;;;;9.18;6.07;;;;;;;;;;10008326;29;20380;-83
2023/08/13 18:24:14;;;;;;;8.85;6.05;;;;;;;;;;10011072;29;20106;-84
2023/08/13 18:29:15;;;;;;;8.70;6.35;;;;;;;;;;9994650;29;20042;-82
2023/08/13 18:34:16;;;;;;;7.88;6.18;;;;;;;;;;10002271;29;20128;-85
2023/08/13 18:39:17;;;;;;;6.63;5.43;;;;;;;;;;9988867;29;20513;-84
2023/08/13 18:44:19;;;;;;;8.45;6.13;;;;;;;;;;9998514;29;20050;-85
2023/08/13 18:49:20;;;;;;;9.05;6.20;;;;;;;;;;10001276;29;20488;-87
2023/08/13 18:54:21;;;;;;;7.55;6.40;;;;;;;;;;9990754;29;20066;-86
2023/08/13 18:59:22;;;;;;;8.93;6.40;;;;;;;;;;10000141;29;20554;-86
2023/08/13 19:04:23;;;;;;;7.47;5.60;;;;;;;;;;10000315;29;20042;-86
2023/08/13 19:09:24;;;;;;;12.70;6.40;;;;;;;;;;9990803;29;20403;-86
2023/08/13 19:14:26;;;;;;;17.27;7.55;;;;;;;;;;9990664;29;20054;-86
2023/08/13 19:19:27;;;;;;;10.23;5.97;;;;;;;;;;10008062;29;20049;-86
2023/08/13 19:24:28;;;;;;;8.63;6.78;;;;;;;;;;10005649;29;20134;-84
2023/08/13 19:29:29;;;;;;;8.70;6.95;;;;;;;;;;9991983;29;20046;-84
2023/08/13 19:34:31;;;;;;;9.18;6.97;;;;;;;;;;9998717;29;20078;-84
2023/08/13 19:39:32;;;;;;;9.10;7.15;;;;;;;;;;9997326;29;20084;-83
2023/08/13 19:44:33;;;;;;;8.77;6.75;;;;;;;;;;10001463;29;20141;-84
2023/08/13 19:49:34;;;;;;;8.40;6.50;;;;;;;;;;9994514;29;20038;-84
2023/08/13 19:54:35;;;;;;;8.38;7.00;;;;;;;;;;10020694;24;20070;-82
2023/08/13 19:59:36;;;;;;;11.05;7.90;;;;;;;;;;10007282;29;20121;-81
2023/08/13 20:04:37;;;;;;;13.13;8.70;;;;;;;;;;10007025;29;20502;-81
2023/08/13 20:09:38;;;;;;;12.93;8.88;;;;;;;;;;10014660;29;20044;-81
2023/08/13 20:14:39;;;;;;;13.95;9.25;;;;;;;;;;10015515;29;20045;-81
2023/08/13 20:19:40;;;;;;;15.20;10.05;;;;;;;;;;10015509;29;20129;-82
2023/08/13 20:24:41;;;;;;;15.25;10.00;;;;;;;;;;10013045;29;20137;-81
2023/08/13 20:29:43;;;;;;;14.05;10.35;;;;;;;;;;10009927;29;20133;-80
2023/08/13 20:34:44;;;;;;;9.45;8.20;;;;;;;;;;10005024;29;20609;-81
2023/08/13 20:39:45;;;;;;;10.98;8.48;;;;;;;;;;10014366;29;20069;-82
2023/08/13 20:44:46;;;;;;;11.57;9.18;;;;;;;;;;10008810;29;20526;-81
2023/08/13 20:49:47;;;;;;;15.13;9.50;;;;;;;;;;10012069;29;20046;-81
2023/08/13 20:54:48;;;;;;;16.75;9.00;;;;;;;;;;9990830;29;20739;-82
2023/08/13 20:59:50;;;;;;;10.57;8.77;;;;;;;;;;10007424;29;20514;-81
2023/08/13 21:04:51;;;;;;;10.80;7.68;;;;;;;;;;10005833;29;20034;-82
2023/08/13 21:09:52;;;;;;;9.27;7.30;;;;;;;;;;10011273;29;20046;-81
2023/08/13 21:14:53;;;;;;;10.30;7.25;;;;;;;;;;9998949;29;20046;-82
2023/08/13 21:19:54;;;;;;;9.73;7.15;;;;;;;;;;10007020;29;20046;-81
2023/08/13 21:24:55;;;;;;;11.00;7.25;;;;;;;;;;9987444;29;20059;-82
2023/08/13 21:30:07;;;;;;;8.75;6.90;;;;;;;;;;10006760;29;20038;-82
2023/08/13 21:35:08;;;;;;;8.82;7.03;;;;;;;;;;10003549;29;20049;-81
2023/08/13 21:40:09;;;;;;;10.23;7.35;;;;;;;;;;10003610;29;20076;-81
2023/08/13 21:45:10;;;;;;;10.85;8.82;;;;;;;;;;10006847;29;20045;-82
2023/08/13 21:50:11;;;;;;;13.23;9.30;;;;;;;;;;10012594;29;20053;-82
2023/08/13 21:55:12;;;;;;;12.52;8.35;;;;;;;;;;9996577;29;20140;-81
2023/08/13 22:00:15;;;;;;;11.05;8.88;;;;;;;;;;10001793;29;20042;-81
2023/08/13 22:05:16;;;;;;;9.95;8.20;;;;;;;;;;10001823;29;20058;-81
2023/08/13 22:10:17;;;;;;;11.70;8.30;;;;;;;;;;9991804;29;20049;-82
2023/08/13 22:15:18;;;;;;;10.32;8.25;;;;;;;;;;9998691;29;20049;-82
2023/08/13 22:20:22;;;;;;;10.63;8.85;;;;;;;;;;9996527;29;20440;-82
2023/08/13 22:25:25;;;;;;;14.05;8.95;;;;;;;;;;10002784;29;20120;-82
2023/08/13 22:30:26;;;;;;;12.32;9.95;;;;;;;;;;9998020;29;20103;-82
2023/08/13 22:35:27;;;;;;;14.63;10.90;;;;;;;;;;10009313;29;20042;-81
2023/08/13 22:40:28;;;;;;;12.05;9.73;;;;;;;;;;10009023;29;20042;-81
2023/08/13 22:45:29;;;;;;;15.10;9.88;;;;;;;;;;10001354;29;20061;-81
2023/08/13 22:50:30;;;;;;;13.32;9.70;;;;;;;;;;9990262;29;20041;-82
2023/08/13 22:55:31;;;;;;;14.63;10.55;;;;;;;;;;10002605;29;20053;-81
2023/08/13 23:00:32;;;;;;;11.30;9.80;;;;;;;;;;10005294;29;20043;-81
2023/08/13 23:05:33;;;;;;;14.80;10.70;;;;;;;;;;10005445;29;20060;-82
2023/08/13 23:10:34;;;;;;;14.27;10.98;;;;;;;;;;10001289;29;20049;-84
2023/08/13 23:15:35;;;;;;;13.45;10.82;;;;;;;;;;10001811;29;20043;-83
2023/08/13 23:20:36;;;;;;;14.27;10.45;;;;;;;;;;10006473;29;20042;-84
2023/08/13 23:25:37;;;;;;;15.18;10.82;;;;;;;;;;9997720;29;20162;-83
2023/08/13 23:30:38;;;;;;;16.02;12.07;;;;;;;;;;9999959;29;20083;-83
2023/08/13 23:35:39;;;;;;;14.50;10.15;;;;;;;;;;9992282;29;20075;-84
2023/08/13 23:40:40;;;;;;;14.32;10.50;;;;;;;;;;9997859;29;20043;-84
2023/08/13 23:45:43;;;;;;;15.13;11.50;;;;;;;;;;10003339;29;20064;-83
2023/08/13 23:50:44;;;;;;;14.32;11.15;;;;;;;;;;10005888;29;20057;-84
2023/08/13 23:55:45;;;;;;;13.85;11.05;;;;;;;;;;10006221;29;20057;-83
